Time;durP1;ratioP1;P1;durP2;ratioP2;P2;SDS_P1;SDS_P2;PMS_P1;PMS_P2;Temp;Humidity;BMP_temperature;BMP_pressure;BME280_temperature;BME280_humidity;BME280_pressure;Samples;Min_cycle;Max_cycle;Signal;HPM_P1;HPM_P2
2023/03/04 00:01:51;;;;;;;;;;;;;;;;;;6192166;23;19991;-78
2023/03/04 00:04:16;;;;;;;;;;;;;;;;;;6165084;23;19909;-77
2023/03/04 00:06:42;;;;;;;;;;;;;;;;;;6164933;23;19983;-76
2023/03/04 00:09:08;;;;;;;;;;;;;;;;;;6188373;23;20010;-77
2023/03/04 00:11:33;;;;;;;;;;;;;;;;;;6189288;23;20101;-78
2023/03/04 00:13:59;;;;;;;;;;;;;;;;;;6140651;23;19915;-77
2023/03/04 00:16:28;;;;;;;;;;;;;;;;;;6190465;23;20396;-77
2023/03/04 00:18:53;;;;;;;;;;;;;;;;;;6189002;23;20349;-77
2023/03/04 00:21:19;;;;;;;;;;;;;;;;;;6191314;23;19909;-78
2023/03/04 00:23:44;;;;;;;;;;;;;;;;;;6165162;23;20337;-76
2023/03/04 00:26:10;;;;;;;;;;;;;;;;;;6190551;23;20223;-79
2023/03/04 00:28:43;;;;;;;;;;;;;;;;;;6167256;23;19908;-77
2023/03/04 00:31:09;;;;;;;;;;;;;;;;;;6166293;23;19908;-77
2023/03/04 00:33:34;;;;;;;;;;;;;;;;;;6192604;23;19908;-78
2023/03/04 00:36:00;;;;;;;;;;;;;;;;;;6195114;23;19908;-77
2023/03/04 00:38:25;;;;;;;;;;;;;;;;;;6194579;23;19908;-77
2023/03/04 00:40:51;;;;;;;;;;;;;;;;;;6190917;23;19908;-76
2023/03/04 00:43:16;;;;;;;;;;;;;;;;;;6187629;23;20019;-77
2023/03/04 00:45:42;;;;;;;;;;;;;;;;;;6161906;23;19915;-77
2023/03/04 00:48:10;;;;;;;;;;;;;;;;;;6188981;23;19912;-76
2023/03/04 00:50:36;;;;;;;;;;;;;;;;;;6163188;23;19928;-76
2023/03/04 00:53:01;;;;;;;;;;;;;;;;;;6189700;23;19971;-77
2023/03/04 00:55:30;;;;;;;;;;;;;;;;;;6190663;23;20433;-78
2023/03/04 00:57:55;;;;;;;;;;;;;;;;;;6138686;23;19912;-77
2023/03/04 01:00:21;;;;;;;;;;;;;;;;;;6162407;23;19915;-77
2023/03/04 01:02:46;;;;;;;;;;;;;;;;;;6163361;23;19940;-78
2023/03/04 01:05:12;;;;;;;;;;;;;;;;;;6188244;23;20338;-77
2023/03/04 01:07:41;;;;;;;;;;;;;;;;;;6188635;23;19916;-77
2023/03/04 01:10:06;;;;;;;;;;;;;;;;;;6186630;23;19908;-77
2023/03/04 01:12:32;;;;;;;;;;;;;;;;;;6163582;23;19931;-77
2023/03/04 01:15:03;;;;;;;;;;;;;;;;;;6191446;23;19908;-78
2023/03/04 01:17:29;;;;;;;;;;;;;;;;;;6165660;23;19909;-77
2023/03/04 01:19:55;;;;;;;;;;;;;;;;;;6194310;23;19915;-77
2023/03/04 01:22:20;;;;;;;;;;;;;;;;;;6193647;23;19915;-77
2023/03/04 01:24:47;;;;;;;;;;;;;;;;;;6170053;23;20321;-78
2023/03/04 01:27:12;;;;;;;;;;;;;;;;;;6193700;23;19919;-77
2023/03/04 01:29:38;;;;;;;;;;;;;;;;;;6194200;23;19940;-77
2023/03/04 01:32:03;;;;;;;;;;;;;;;;;;6191025;23;20461;-77
2023/03/04 01:34:29;;;;;;;;;;;;;;;;;;6165420;23;19908;-78
2023/03/04 01:36:55;;;;;;;;;;;;;;;;;;6165471;23;19916;-76
2023/03/04 01:39:21;;;;;;;;;;;;;;;;;;6165792;23;20136;-77
2023/03/04 01:41:46;;;;;;;;;;;;;;;;;;6140599;23;20313;-75
2023/03/04 01:44:12;;;;;;;;;;;;;;;;;;6166107;23;19908;-77
2023/03/04 01:46:37;;;;;;;;;;;;;;;;;;6189350;23;19915;-77
2023/03/04 01:49:03;;;;;;;;;;;;;;;;;;6141463;23;19919;-77
2023/03/04 01:51:28;;;;;;;;;;;;;;;;;;6141093;23;19908;-77
2023/03/04 01:53:54;;;;;;;;;;;;;;;;;;6166536;23;19912;-77
2023/03/04 01:56:19;;;;;;;;;;;;;;;;;;6165981;23;19908;-78
2023/03/04 01:58:53;;;;;;;;;;;;;;;;;;6168802;23;19956;-77
2023/03/04 02:01:28;;;;;;;;;;;;;;;;;;6169163;23;19916;-78
2023/03/04 02:03:53;;;;;;;;;;;;;;;;;;6168654;23;20326;-76
2023/03/04 02:06:19;;;;;;;;;;;;;;;;;;6194987;23;19911;-77
2023/03/04 02:08:44;;;;;;;;;;;;;;;;;;6172681;23;20319;-76
2023/03/04 02:11:10;;;;;;;;;;;;;;;;;;6191152;23;19909;-77
2023/03/04 02:13:36;;;;;;;;;;;;;;;;;;6167373;23;19908;-77
2023/03/04 02:16:01;;;;;;;;;;;;;;;;;;6191956;23;19908;-76
2023/03/04 02:18:26;;;;;;;;;;;;;;;;;;6194106;23;19909;-76
2023/03/04 02:20:56;;;;;;;;;;;;;;;;;;6167755;23;20342;-77
2023/03/04 02:23:47;;;;;;;;;;;;;;;;;;6193646;23;19920;-76
2023/03/04 02:26:12;;;;;;;;;;;;;;;;;;6145140;23;19908;-76
2023/03/04 02:28:38;;;;;;;;;;;;;;;;;;6196416;23;19919;-77
2023/03/04 02:31:04;;;;;;;;;;;;;;;;;;6171495;23;19912;-76
2023/03/04 02:33:29;;;;;;;;;;;;;;;;;;6194452;23;19928;-77
2023/03/04 02:35:56;;;;;;;;;;;;;;;;;;6193727;23;19916;-76
2023/03/04 02:38:24;;;;;;;;;;;;;;;;;;6193591;23;19912;-77
2023/03/04 02:40:59;;;;;;;;;;;;;;;;;;6194123;23;20356;-77
2023/03/04 02:43:25;;;;;;;;;;;;;;;;;;6193408;23;19967;-77
2023/03/04 02:45:50;;;;;;;;;;;;;;;;;;6169485;23;19904;-77
2023/03/04 02:48:16;;;;;;;;;;;;;;;;;;6143227;23;19916;-77
2023/03/04 02:50:42;;;;;;;;;;;;;;;;;;6192889;23;19908;-77
2023/03/04 02:53:07;;;;;;;;;;;;;;;;;;6166131;23;19916;-77
2023/03/04 02:55:33;;;;;;;;;;;;;;;;;;6193672;23;19915;-78
2023/03/04 02:58:02;;;;;;;;;;;;;;;;;;6170499;23;19918;-77
2023/03/04 03:00:27;;;;;;;;;;;;;;;;;;6143658;23;19928;-77
2023/03/04 03:02:53;;;;;;;;;;;;;;;;;;6168105;23;20246;-77
2023/03/04 03:05:18;;;;;;;;;;;;;;;;;;6141958;23;19908;-77
2023/03/04 03:07:44;;;;;;;;;;;;;;;;;;6191607;23;19916;-77
2023/03/04 03:10:10;;;;;;;;;;;;;;;;;;6166257;23;19908;-76
2023/03/04 03:12:36;;;;;;;;;;;;;;;;;;6191650;23;20294;-76
2023/03/04 03:15:02;;;;;;;;;;;;;;;;;;6167218;23;19912;-77
2023/03/04 03:17:31;;;;;;;;;;;;;;;;;;6141038;23;20047;-77
2023/03/04 03:19:56;;;;;;;;;;;;;;;;;;6190394;23;19988;-77
2023/03/04 03:22:22;;;;;;;;;;;;;;;;;;6191744;23;19908;-76
2023/03/04 03:24:47;;;;;;;;;;;;;;;;;;6191809;23;19916;-77
2023/03/04 03:27:13;;;;;;;;;;;;;;;;;;6189877;23;19912;-77
2023/03/04 03:29:41;;;;;;;;;;;;;;;;;;6165667;23;19987;-77
2023/03/04 03:32:07;;;;;;;;;;;;;;;;;;6190293;23;20290;-77
2023/03/04 03:34:32;;;;;;;;;;;;;;;;;;6190200;23;19979;-76
2023/03/04 03:36:58;;;;;;;;;;;;;;;;;;6165313;23;19963;-76
2023/03/04 03:39:23;;;;;;;;;;;;;;;;;;6191083;23;19936;-77
2023/03/04 03:41:49;;;;;;;;;;;;;;;;;;6163603;23;19912;-77
2023/03/04 03:44:14;;;;;;;;;;;;;;;;;;6189649;23;20245;-76
2023/03/04 03:46:40;;;;;;;;;;;;;;;;;;6164008;23;19908;-77
2023/03/04 03:49:05;;;;;;;;;;;;;;;;;;6161253;23;19964;-76
2023/03/04 03:51:30;;;;;;;;;;;;;;;;;;6162276;23;19983;-77
2023/03/04 03:53:56;;;;;;;;;;;;;;;;;;6163922;23;19908;-77
2023/03/04 03:56:21;;;;;;;;;;;;;;;;;;6165052;23;19935;-77
2023/03/04 03:58:47;;;;;;;;;;;;;;;;;;6189171;23;19912;-77
2023/03/04 04:01:13;;;;;;;;;;;;;;;;;;6137263;23;19959;-76
2023/03/04 04:03:38;;;;;;;;;;;;;;;;;;6185535;23;19958;-77
2023/03/04 04:06:04;;;;;;;;;;;;;;;;;;6137876;23;20250;-77
2023/03/04 04:08:29;;;;;;;;;;;;;;;;;;6162156;23;19919;-76
2023/03/04 04:10:54;;;;;;;;;;;;;;;;;;6139958;23;19904;-77
2023/03/04 04:13:20;;;;;;;;;;;;;;;;;;6194848;23;19892;-77
2023/03/04 04:15:45;;;;;;;;;;;;;;;;;;6173629;23;20348;-77
2023/03/04 04:18:11;;;;;;;;;;;;;;;;;;6198613;23;19931;-77
2023/03/04 04:20:36;;;;;;;;;;;;;;;;;;6172410;23;19908;-77
2023/03/04 04:23:02;;;;;;;;;;;;;;;;;;6145815;23;19909;-77
2023/03/04 04:25:27;;;;;;;;;;;;;;;;;;6168142;23;20354;-77
2023/03/04 04:27:53;;;;;;;;;;;;;;;;;;6194211;23;19913;-77
2023/03/04 04:30:18;;;;;;;;;;;;;;;;;;6195388;23;20345;-76
2023/03/04 04:32:43;;;;;;;;;;;;;;;;;;6193304;23;19908;-76
2023/03/04 04:35:09;;;;;;;;;;;;;;;;;;6195347;23;19908;-75
2023/03/04 04:37:34;;;;;;;;;;;;;;;;;;6193740;23;20297;-78
2023/03/04 04:40:00;;;;;;;;;;;;;;;;;;6197560;23;19915;-76
2023/03/04 04:42:25;;;;;;;;;;;;;;;;;;6176366;23;19939;-77
2023/03/04 04:44:51;;;;;;;;;;;;;;;;;;6176231;23;19909;-77
2023/03/04 04:47:17;;;;;;;;;;;;;;;;;;6200421;23;19920;-79
2023/03/04 04:49:42;;;;;;;;;;;;;;;;;;6194799;23;19958;-77
2023/03/04 04:52:07;;;;;;;;;;;;;;;;;;6169396;23;19939;-77
2023/03/04 04:54:33;;;;;;;;;;;;;;;;;;6189742;23;19916;-77
2023/03/04 04:56:58;;;;;;;;;;;;;;;;;;6169361;23;19920;-77
2023/03/04 04:59:24;;;;;;;;;;;;;;;;;;6168587;23;20227;-77
2023/03/04 05:01:50;;;;;;;;;;;;;;;;;;6172944;23;20322;-79
2023/03/04 05:04:15;;;;;;;;;;;;;;;;;;6171991;23;19932;-77
2023/03/04 05:06:41;;;;;;;;;;;;;;;;;;6170508;23;19983;-76
2023/03/04 05:09:06;;;;;;;;;;;;;;;;;;6148439;23;19912;-77
2023/03/04 05:11:32;;;;;;;;;;;;;;;;;;6170154;23;19923;-78
2023/03/04 05:13:57;;;;;;;;;;;;;;;;;;6169692;23;19909;-77
2023/03/04 05:16:23;;;;;;;;;;;;;;;;;;6164507;23;20055;-76
2023/03/04 05:18:48;;;;;;;;;;;;;;;;;;6162288;23;19908;-76
2023/03/04 05:21:14;;;;;;;;;;;;;;;;;;6187835;23;19916;-76
2023/03/04 05:23:39;;;;;;;;;;;;;;;;;;6161959;23;19986;-78
2023/03/04 05:26:05;;;;;;;;;;;;;;;;;;6187081;23;19931;-77
2023/03/04 05:28:30;;;;;;;;;;;;;;;;;;6137994;23;19962;-77
2023/03/04 05:30:56;;;;;;;;;;;;;;;;;;6137969;23;19992;-77
2023/03/04 05:33:24;;;;;;;;;;;;;;;;;;6163267;23;19919;-77
2023/03/04 05:35:50;;;;;;;;;;;;;;;;;;6188545;23;19908;-77
2023/03/04 05:38:15;;;;;;;;;;;;;;;;;;6186556;23;19983;-76
2023/03/04 05:40:41;;;;;;;;;;;;;;;;;;6161980;23;19955;-77
2023/03/04 05:43:06;;;;;;;;;;;;;;;;;;6161970;23;20043;-78
2023/03/04 05:45:32;;;;;;;;;;;;;;;;;;6162094;23;19908;-77
2023/03/04 05:47:58;;;;;;;;;;;;;;;;;;6136748;23;19912;-77
2023/03/04 05:50:23;;;;;;;;;;;;;;;;;;6161350;23;20334;-77
2023/03/04 05:52:51;;;;;;;;;;;;;;;;;;6186596;23;19931;-77
2023/03/04 05:55:18;;;;;;;;;;;;;;;;;;6186429;23;21823;-77
2023/03/04 05:57:44;;;;;;;;;;;;;;;;;;6159995;23;19912;-84
2023/03/04 06:00:09;;;;;;;;;;;;;;;;;;6182564;23;19901;-84
2023/03/04 06:02:38;;;;;;;;;;;;;;;;;;6181609;23;19901;-84
2023/03/04 06:05:04;;;;;;;;;;;;;;;;;;6181558;23;19916;-84
2023/03/04 06:07:29;;;;;;;;;;;;;;;;;;6181072;23;19916;-85
2023/03/04 06:09:55;;;;;;;;;;;;;;;;;;6157195;23;19932;-86
2023/03/04 06:12:20;;;;;;;;;;;;;;;;;;6180345;23;19908;-83
2023/03/04 06:14:46;;;;;;;;;;;;;;;;;;6178974;23;19908;-85
2023/03/04 06:17:11;;;;;;;;;;;;;;;;;;6179013;23;20426;-84
2023/03/04 06:19:40;;;;;;;;;;;;;;;;;;6179946;23;19909;-85
2023/03/04 06:22:06;;;;;;;;;;;;;;;;;;6182145;23;19892;-86
2023/03/04 06:24:31;;;;;;;;;;;;;;;;;;6182763;23;19897;-86
2023/03/04 06:26:57;;;;;;;;;;;;;;;;;;6132818;23;19908;-84
2023/03/04 06:29:25;;;;;;;;;;;;;;;;;;6179555;23;19913;-84
2023/03/04 06:31:50;;;;;;;;;;;;;;;;;;6180761;23;19959;-84
2023/03/04 06:34:16;;;;;;;;;;;;;;;;;;6180646;23;19916;-85
2023/03/04 06:36:41;;;;;;;;;;;;;;;;;;6180036;23;19908;-85
2023/03/04 06:39:07;;;;;;;;;;;;;;;;;;6176383;23;19953;-85
2023/03/04 06:41:32;;;;;;;;;;;;;;;;;;6178884;23;20300;-85
2023/03/04 06:43:58;;;;;;;;;;;;;;;;;;6177130;23;19909;-85
2023/03/04 06:46:23;;;;;;;;;;;;;;;;;;6177961;23;19915;-85
2023/03/04 06:48:49;;;;;;;;;;;;;;;;;;6154185;23;19913;-85
2023/03/04 06:51:15;;;;;;;;;;;;;;;;;;6179380;23;19913;-85
2023/03/04 06:53:40;;;;;;;;;;;;;;;;;;6179855;23;19928;-85
2023/03/04 06:56:06;;;;;;;;;;;;;;;;;;6156416;23;19909;-85
2023/03/04 06:58:31;;;;;;;;;;;;;;;;;;5982023;23;4654655;-85
2023/03/04 07:00:57;;;;;;;;;;;;;;;;;;6182229;23;19931;-86
2023/03/04 07:03:23;;;;;;;;;;;;;;;;;;6181652;23;19937;-85
2023/03/04 07:05:48;;;;;;;;;;;;;;;;;;6183577;23;19893;-85
2023/03/04 07:08:14;;;;;;;;;;;;;;;;;;6182378;23;19920;-85
2023/03/04 07:10:39;;;;;;;;;;;;;;;;;;6179744;23;19899;-83
2023/03/04 07:13:05;;;;;;;;;;;;;;;;;;6181670;23;19952;-84
2023/03/04 07:15:31;;;;;;;;;;;;;;;;;;6180642;23;19904;-84
2023/03/04 07:17:56;;;;;;;;;;;;;;;;;;6181543;23;19908;-85
2023/03/04 07:20:21;;;;;;;;;;;;;;;;;;6180394;23;19915;-84
2023/03/04 07:22:47;;;;;;;;;;;;;;;;;;6154392;23;19961;-84
2023/03/04 07:25:12;;;;;;;;;;;;;;;;;;6130644;23;19935;-84
2023/03/04 07:27:39;;;;;;;;;;;;;;;;;;6151564;23;19932;-83
2023/03/04 07:30:05;;;;;;;;;;;;;;;;;;6152943;23;19909;-84
2023/03/04 07:32:32;;;;;;;;;;;;;;;;;;6178362;23;19912;-85
2023/03/04 07:34:58;;;;;;;;;;;;;;;;;;6128279;23;19909;-84
2023/03/04 07:37:23;;;;;;;;;;;;;;;;;;6177571;23;19953;-84
2023/03/04 07:39:48;;;;;;;;;;;;;;;;;;6127927;23;20311;-84
2023/03/04 07:42:14;;;;;;;;;;;;;;;;;;6175713;23;20309;-83
2023/03/04 07:44:40;;;;;;;;;;;;;;;;;;6153488;23;19935;-85
2023/03/04 07:47:06;;;;;;;;;;;;;;;;;;6131949;23;19908;-84
2023/03/04 07:49:31;;;;;;;;;;;;;;;;;;6180197;23;19908;-84
2023/03/04 07:51:57;;;;;;;;;;;;;;;;;;6180426;23;19915;-85
2023/03/04 07:54:22;;;;;;;;;;;;;;;;;;6179649;23;19909;-82
2023/03/04 07:56:48;;;;;;;;;;;;;;;;;;6152022;23;19909;-84
2023/03/04 07:59:16;;;;;;;;;;;;;;;;;;6177562;23;19940;-84
2023/03/04 08:01:42;;;;;;;;;;;;;;;;;;6152287;23;19916;-84
2023/03/04 08:04:07;;;;;;;;;;;;;;;;;;6177959;23;19909;-84
2023/03/04 08:06:33;;;;;;;;;;;;;;;;;;6153590;23;19952;-83
2023/03/04 08:08:58;;;;;;;;;;;;;;;;;;6178070;23;19919;-84
2023/03/04 08:11:24;;;;;;;;;;;;;;;;;;6178550;23;19932;-84
2023/03/04 08:13:49;;;;;;;;;;;;;;;;;;6178037;23;19978;-84
2023/03/04 08:16:15;;;;;;;;;;;;;;;;;;6174633;23;19909;-83
2023/03/04 08:18:40;;;;;;;;;;;;;;;;;;6169477;23;19916;-82
2023/03/04 08:21:06;;;;;;;;;;;;;;;;;;6174388;23;19937;-83
2023/03/04 08:23:31;;;;;;;;;;;;;;;;;;6204173;23;19908;-83
2023/03/04 08:25:57;;;;;;;;;;;;;;;;;;6176214;23;19928;-85
2023/03/04 08:28:22;;;;;;;;;;;;;;;;;;6174333;23;19912;-83
2023/03/04 08:30:48;;;;;;;;;;;;;;;;;;6149971;23;19925;-83
2023/03/04 08:33:13;;;;;;;;;;;;;;;;;;6176802;23;19991;-83
2023/03/04 08:35:39;;;;;;;;;;;;;;;;;;6180019;23;19996;-83
2023/03/04 08:38:04;;;;;;;;;;;;;;;;;;6153444;23;19916;-83
2023/03/04 08:40:30;;;;;;;;;;;;;;;;;;6176932;23;19956;-82
2023/03/04 08:42:55;;;;;;;;;;;;;;;;;;6176716;23;19920;-83
2023/03/04 08:45:21;;;;;;;;;;;;;;;;;;6128396;23;19918;-82
2023/03/04 08:47:46;;;;;;;;;;;;;;;;;;6177444;23;19919;-82
2023/03/04 08:50:12;;;;;;;;;;;;;;;;;;6153794;23;19916;-81
2023/03/04 08:52:37;;;;;;;;;;;;;;;;;;6177695;23;19919;-82
2023/03/04 08:55:03;;;;;;;;;;;;;;;;;;6177060;23;19947;-83
2023/03/04 08:57:31;;;;;;;;;;;;;;;;;;6172943;23;19909;-82
2023/03/04 08:59:56;;;;;;;;;;;;;;;;;;6173133;23;19931;-82
2023/03/04 09:02:22;;;;;;;;;;;;;;;;;;6176972;23;19916;-83
2023/03/04 09:04:48;;;;;;;;;;;;;;;;;;6177968;23;19908;-83
2023/03/04 09:07:13;;;;;;;;;;;;;;;;;;6151392;23;19928;-84
2023/03/04 09:09:38;;;;;;;;;;;;;;;;;;6129538;23;19908;-85
2023/03/04 09:12:04;;;;;;;;;;;;;;;;;;6177075;23;19912;-84
2023/03/04 09:14:29;;;;;;;;;;;;;;;;;;6177596;23;19917;-83
2023/03/04 09:16:55;;;;;;;;;;;;;;;;;;6176954;23;20217;-83
2023/03/04 09:19:20;;;;;;;;;;;;;;;;;;6177344;23;19936;-83
2023/03/04 09:21:46;;;;;;;;;;;;;;;;;;6172903;23;19909;-83
2023/03/04 09:24:11;;;;;;;;;;;;;;;;;;6193636;23;20339;-82
2023/03/04 09:26:37;;;;;;;;;;;;;;;;;;6168234;23;19916;-82
2023/03/04 09:29:03;;;;;;;;;;;;;;;;;;6168206;23;19913;-82
2023/03/04 09:31:28;;;;;;;;;;;;;;;;;;6165496;23;19916;-82
2023/03/04 09:33:54;;;;;;;;;;;;;;;;;;6142030;23;19912;-83
2023/03/04 09:36:20;;;;;;;;;;;;;;;;;;6164265;23;20219;-82
2023/03/04 09:38:45;;;;;;;;;;;;;;;;;;6140663;23;19908;-83
2023/03/04 09:41:14;;;;;;;;;;;;;;;;;;6138954;23;19908;-81
2023/03/04 09:43:42;;;;;;;;;;;;;;;;;;6171234;23;20357;-82
2023/03/04 09:46:17;;;;;;;;;;;;;;;;;;6144573;23;20330;-83
2023/03/04 09:48:43;;;;;;;;;;;;;;;;;;6123926;23;19913;-82
2023/03/04 09:51:09;;;;;;;;;;;;;;;;;;6172141;23;19979;-83
2023/03/04 09:53:34;;;;;;;;;;;;;;;;;;6144620;23;19923;-82
2023/03/04 09:56:01;;;;;;;;;;;;;;;;;;6172468;23;19948;-84
2023/03/04 09:58:26;;;;;;;;;;;;;;;;;;6178507;23;19988;-82
2023/03/04 10:00:52;;;;;;;;;;;;;;;;;;6155060;23;20365;-82
2023/03/04 10:03:17;;;;;;;;;;;;;;;;;;6181095;23;19913;-84
2023/03/04 10:05:43;;;;;;;;;;;;;;;;;;6182530;23;19903;-84
2023/03/04 10:08:08;;;;;;;;;;;;;;;;;;6183458;23;19912;-83
2023/03/04 10:10:34;;;;;;;;;;;;;;;;;;6183631;23;19915;-84
2023/03/04 10:12:59;;;;;;;;;;;;;;;;;;6181191;23;19908;-82
2023/03/04 10:15:25;;;;;;;;;;;;;;;;;;6183127;23;19919;-82
2023/03/04 10:17:52;;;;;;;;;;;;;;;;;;6181883;23;19892;-83
2023/03/04 10:20:17;;;;;;;;;;;;;;;;;;6180794;23;19916;-84
2023/03/04 10:22:43;;;;;;;;;;;;;;;;;;6179936;23;20294;-83
2023/03/04 10:25:08;;;;;;;;;;;;;;;;;;6180351;23;19908;-83
2023/03/04 10:27:34;;;;;;;;;;;;;;;;;;6181379;23;19916;-82
2023/03/04 10:30:00;;;;;;;;;;;;;;;;;;6182639;23;19915;-84
2023/03/04 10:32:25;;;;;;;;;;;;;;;;;;6181311;23;19928;-83
2023/03/04 10:34:51;;;;;;;;;;;;;;;;;;6157632;23;19936;-83
2023/03/04 10:37:16;;;;;;;;;;;;;;;;;;6182326;23;19916;-82
2023/03/04 10:39:42;;;;;;;;;;;;;;;;;;6132728;23;19899;-83
2023/03/04 10:42:07;;;;;;;;;;;;;;;;;;6155600;23;19975;-82
2023/03/04 10:44:33;;;;;;;;;;;;;;;;;;6178888;23;19916;-85
2023/03/04 10:46:59;;;;;;;;;;;;;;;;;;6153352;23;19928;-82
2023/03/04 10:49:24;;;;;;;;;;;;;;;;;;6179207;23;19913;-83
2023/03/04 10:51:50;;;;;;;;;;;;;;;;;;6178912;23;19917;-83
2023/03/04 10:54:19;;;;;;;;;;;;;;;;;;6155321;23;19920;-82
2023/03/04 10:56:45;;;;;;;;;;;;;;;;;;6179225;23;19912;-84
2023/03/04 10:59:10;;;;;;;;;;;;;;;;;;6176830;23;19935;-82
2023/03/04 11:01:36;;;;;;;;;;;;;;;;;;6151423;23;19908;-82
2023/03/04 11:04:02;;;;;;;;;;;;;;;;;;6178359;23;19936;-83
2023/03/04 11:06:28;;;;;;;;;;;;;;;;;;6179317;23;19908;-81
2023/03/04 11:08:58;;;;;;;;;;;;;;;;;;6156617;23;19940;-83
2023/03/04 11:11:23;;;;;;;;;;;;;;;;;;6180100;23;19915;-82
2023/03/04 11:13:52;;;;;;;;;;;;;;;;;;6155816;23;19908;-84
2023/03/04 11:16:17;;;;;;;;;;;;;;;;;;6155918;23;19909;-83
2023/03/04 11:18:43;;;;;;;;;;;;;;;;;;6180285;23;19955;-82
2023/03/04 11:21:08;;;;;;;;;;;;;;;;;;6179528;23;19922;-83
2023/03/04 11:23:34;;;;;;;;;;;;;;;;;;6181299;23;19913;-83
2023/03/04 11:25:59;;;;;;;;;;;;;;;;;;6180849;23;19909;-82
2023/03/04 11:28:25;;;;;;;;;;;;;;;;;;6180249;23;19913;-83
2023/03/04 11:30:50;;;;;;;;;;;;;;;;;;6179350;23;20326;-83
2023/03/04 11:33:16;;;;;;;;;;;;;;;;;;6155194;23;19900;-82
2023/03/04 11:35:41;;;;;;;;;;;;;;;;;;6178910;23;19931;-84
2023/03/04 11:38:07;;;;;;;;;;;;;;;;;;6178944;23;19912;-83
2023/03/04 11:40:32;;;;;;;;;;;;;;;;;;6176550;23;19909;-83
2023/03/04 11:42:58;;;;;;;;;;;;;;;;;;6176711;23;19909;-83
2023/03/04 11:45:24;;;;;;;;;;;;;;;;;;6175453;23;19909;-83
2023/03/04 11:47:49;;;;;;;;;;;;;;;;;;6153071;23;19921;-82
2023/03/04 11:50:15;;;;;;;;;;;;;;;;;;6178207;23;19908;-84
2023/03/04 11:52:40;;;;;;;;;;;;;;;;;;6179923;23;19916;-83
2023/03/04 11:55:07;;;;;;;;;;;;;;;;;;6154282;23;19912;-82
2023/03/04 11:57:34;;;;;;;;;;;;;;;;;;6152539;23;19928;-82
2023/03/04 12:00:00;;;;;;;;;;;;;;;;;;6176288;23;19908;-83
2023/03/04 12:02:26;;;;;;;;;;;;;;;;;;6176297;23;19905;-82
2023/03/04 12:04:51;;;;;;;;;;;;;;;;;;6174458;23;19952;-82
2023/03/04 12:07:17;;;;;;;;;;;;;;;;;;6150036;23;19932;-83
2023/03/04 12:09:42;;;;;;;;;;;;;;;;;;6151291;23;20395;-83
2023/03/04 12:12:07;;;;;;;;;;;;;;;;;;6177726;23;19912;-82
2023/03/04 12:14:33;;;;;;;;;;;;;;;;;;6179321;23;19952;-83
2023/03/04 12:16:59;;;;;;;;;;;;;;;;;;6176243;23;19909;-83
2023/03/04 12:19:27;;;;;;;;;;;;;;;;;;6178430;23;19904;-82
2023/03/04 12:22:01;;;;;;;;;;;;;;;;;;6154684;23;19905;-82
2023/03/04 12:24:27;;;;;;;;;;;;;;;;;;6177795;23;19915;-82
2023/03/04 12:26:52;;;;;;;;;;;;;;;;;;6178576;23;19909;-84
2023/03/04 12:29:17;;;;;;;;;;;;;;;;;;6177263;23;19939;-82
2023/03/04 12:31:43;;;;;;;;;;;;;;;;;;6152472;23;19932;-82
2023/03/04 12:34:09;;;;;;;;;;;;;;;;;;6179095;23;19915;-82
2023/03/04 12:36:37;;;;;;;;;;;;;;;;;;6176849;23;19913;-82
2023/03/04 12:39:03;;;;;;;;;;;;;;;;;;6179313;23;19909;-83
2023/03/04 12:41:29;;;;;;;;;;;;;;;;;;6177875;23;19916;-83
2023/03/04 12:43:54;;;;;;;;;;;;;;;;;;6153775;23;19966;-83
2023/03/04 12:46:20;;;;;;;;;;;;;;;;;;6178236;23;19909;-82
2023/03/04 12:48:48;;;;;;;;;;;;;;;;;;6175722;23;19908;-83
2023/03/04 12:51:16;;;;;;;;;;;;;;;;;;6176355;23;19940;-82
2023/03/04 12:53:42;;;;;;;;;;;;;;;;;;6173487;23;19908;-82
2023/03/04 12:56:08;;;;;;;;;;;;;;;;;;6199093;23;20291;-83
2023/03/04 12:58:34;;;;;;;;;;;;;;;;;;6175431;23;20247;-82
2023/03/04 13:00:59;;;;;;;;;;;;;;;;;;6151259;23;19957;-81
2023/03/04 13:03:25;;;;;;;;;;;;;;;;;;6177512;23;19956;-82
2023/03/04 13:05:50;;;;;;;;;;;;;;;;;;6176674;23;19908;-82
2023/03/04 13:08:16;;;;;;;;;;;;;;;;;;6177966;23;19912;-82
2023/03/04 13:10:42;;;;;;;;;;;;;;;;;;6179215;23;19976;-83
2023/03/04 13:13:07;;;;;;;;;;;;;;;;;;6204800;23;19905;-82
2023/03/04 13:15:33;;;;;;;;;;;;;;;;;;6178551;23;19920;-82
2023/03/04 13:17:59;;;;;;;;;;;;;;;;;;6156373;23;19953;-83
2023/03/04 13:20:24;;;;;;;;;;;;;;;;;;6156477;23;19912;-82
2023/03/04 13:22:50;;;;;;;;;;;;;;;;;;6181633;23;19919;-82
2023/03/04 13:25:15;;;;;;;;;;;;;;;;;;6157999;23;19911;-83
2023/03/04 13:27:41;;;;;;;;;;;;;;;;;;6182458;23;19901;-84
2023/03/04 13:30:06;;;;;;;;;;;;;;;;;;6157895;23;19916;-82
2023/03/04 13:32:36;;;;;;;;;;;;;;;;;;6183380;23;19908;-82
2023/03/04 13:35:01;;;;;;;;;;;;;;;;;;6183617;23;19977;-82
2023/03/04 13:37:28;;;;;;;;;;;;;;;;;;6183336;23;19916;-83
2023/03/04 13:39:54;;;;;;;;;;;;;;;;;;6206663;23;19935;-83
2023/03/04 13:42:19;;;;;;;;;;;;;;;;;;6180553;23;19908;-81
2023/03/04 13:44:45;;;;;;;;;;;;;;;;;;6181941;23;19893;-83
2023/03/04 13:47:10;;;;;;;;;;;;;;;;;;6179691;23;19936;-82
2023/03/04 13:49:36;;;;;;;;;;;;;;;;;;6178325;23;19988;-82
2023/03/04 13:52:02;;;;;;;;;;;;;;;;;;6177811;23;19997;-82
2023/03/04 13:54:27;;;;;;;;;;;;;;;;;;6126927;23;19909;-81
2023/03/04 13:56:53;;;;;;;;;;;;;;;;;;6176850;23;19916;-82
2023/03/04 13:59:18;;;;;;;;;;;;;;;;;;6201574;23;19920;-81
2023/03/04 14:01:43;;;;;;;;;;;;;;;;;;6177277;23;19909;-83
2023/03/04 14:04:09;;;;;;;;;;;;;;;;;;6179011;23;19915;-81
2023/03/04 14:06:34;;;;;;;;;;;;;;;;;;6177497;23;19909;-82
2023/03/04 14:09:00;;;;;;;;;;;;;;;;;;6153138;23;19896;-82
2023/03/04 14:11:25;;;;;;;;;;;;;;;;;;6179649;23;19952;-83
2023/03/04 14:13:50;;;;;;;;;;;;;;;;;;6182109;23;19909;-82
2023/03/04 14:16:16;;;;;;;;;;;;;;;;;;6181927;23;19897;-82
2023/03/04 14:18:41;;;;;;;;;;;;;;;;;;6182477;23;19920;-82
2023/03/04 14:21:07;;;;;;;;;;;;;;;;;;6158109;23;19900;-82
2023/03/04 14:23:32;;;;;;;;;;;;;;;;;;6181308;23;20204;-83
2023/03/04 14:26:01;;;;;;;;;;;;;;;;;;6158050;23;19913;-83
2023/03/04 14:28:29;;;;;;;;;;;;;;;;;;6183420;23;20258;-82
2023/03/04 14:30:57;;;;;;;;;;;;;;;;;;6181810;23;19932;-83
2023/03/04 14:33:25;;;;;;;;;;;;;;;;;;6156992;23;19893;-81
2023/03/04 14:35:51;;;;;;;;;;;;;;;;;;6181640;23;19909;-83
2023/03/04 14:38:16;;;;;;;;;;;;;;;;;;6182506;23;19909;-82
2023/03/04 14:40:42;;;;;;;;;;;;;;;;;;6180918;23;19957;-82
2023/03/04 14:43:07;;;;;;;;;;;;;;;;;;6155969;23;19916;-80
2023/03/04 14:45:33;;;;;;;;;;;;;;;;;;6155529;23;20298;-81
2023/03/04 14:47:58;;;;;;;;;;;;;;;;;;6180784;23;19956;-82
2023/03/04 14:50:24;;;;;;;;;;;;;;;;;;6178891;23;19912;-82
2023/03/04 14:52:50;;;;;;;;;;;;;;;;;;6179867;23;19949;-83
2023/03/04 14:55:20;;;;;;;;;;;;;;;;;;6155589;23;19932;-82
2023/03/04 14:57:45;;;;;;;;;;;;;;;;;;6181629;23;19913;-82
2023/03/04 15:00:11;;;;;;;;;;;;;;;;;;6182774;23;19899;-81
2023/03/04 15:02:36;;;;;;;;;;;;;;;;;;6157801;23;19889;-82
2023/03/04 15:05:02;;;;;;;;;;;;;;;;;;6182265;23;19908;-84
2023/03/04 15:07:27;;;;;;;;;;;;;;;;;;6182968;23;19940;-82
2023/03/04 15:09:53;;;;;;;;;;;;;;;;;;6158059;23;19896;-82
2023/03/04 15:12:19;;;;;;;;;;;;;;;;;;6182803;23;19967;-82
2023/03/04 15:14:44;;;;;;;;;;;;;;;;;;6184244;23;19909;-82
2023/03/04 15:17:10;;;;;;;;;;;;;;;;;;6159187;23;19903;-82
2023/03/04 15:19:35;;;;;;;;;;;;;;;;;;6184115;23;19897;-82
2023/03/04 15:22:01;;;;;;;;;;;;;;;;;;6183690;23;19913;-82
2023/03/04 15:24:26;;;;;;;;;;;;;;;;;;6158791;23;19912;-82
2023/03/04 15:26:52;;;;;;;;;;;;;;;;;;6157982;23;19908;-82
2023/03/04 15:29:17;;;;;;;;;;;;;;;;;;6182436;23;19905;-82
2023/03/04 15:31:43;;;;;;;;;;;;;;;;;;6156929;23;19932;-82
2023/03/04 15:34:08;;;;;;;;;;;;;;;;;;6207034;23;19912;-82
2023/03/04 15:36:34;;;;;;;;;;;;;;;;;;6178820;23;19923;-82
2023/03/04 15:39:00;;;;;;;;;;;;;;;;;;6155890;23;19931;-83
2023/03/04 15:41:25;;;;;;;;;;;;;;;;;;6157321;23;19893;-82
2023/03/04 15:43:51;;;;;;;;;;;;;;;;;;6180008;23;19909;-82
2023/03/04 15:46:16;;;;;;;;;;;;;;;;;;6180926;23;19912;-82
2023/03/04 15:48:42;;;;;;;;;;;;;;;;;;6130591;23;19927;-83
2023/03/04 15:51:07;;;;;;;;;;;;;;;;;;6178502;23;19909;-80
2023/03/04 15:53:33;;;;;;;;;;;;;;;;;;6163032;23;19909;-80
2023/03/04 15:55:58;;;;;;;;;;;;;;;;;;6162150;23;19909;-81
2023/03/04 15:58:23;;;;;;;;;;;;;;;;;;6163247;23;19913;-81
2023/03/04 16:00:50;;;;;;;;;;;;;;;;;;6162040;23;19964;-81
2023/03/04 16:03:15;;;;;;;;;;;;;;;;;;6164030;23;19928;-80
2023/03/04 16:05:40;;;;;;;;;;;;;;;;;;6137920;23;19909;-80
2023/03/04 16:08:06;;;;;;;;;;;;;;;;;;6161945;23;19919;-81
2023/03/04 16:10:31;;;;;;;;;;;;;;;;;;6163833;23;19916;-81
2023/03/04 16:12:57;;;;;;;;;;;;;;;;;;6138560;23;19915;-81
2023/03/04 16:15:22;;;;;;;;;;;;;;;;;;6163763;23;19909;-80
2023/03/04 16:17:48;;;;;;;;;;;;;;;;;;6163624;23;19916;-81
2023/03/04 16:20:13;;;;;;;;;;;;;;;;;;6164799;23;19920;-81
2023/03/04 16:22:38;;;;;;;;;;;;;;;;;;6162516;23;19909;-80
2023/03/04 16:25:04;;;;;;;;;;;;;;;;;;6138334;23;20402;-81
2023/03/04 16:27:29;;;;;;;;;;;;;;;;;;6174057;23;19912;-80
2023/03/04 16:29:55;;;;;;;;;;;;;;;;;;6172295;23;20254;-81
2023/03/04 16:32:20;;;;;;;;;;;;;;;;;;6172215;23;19956;-82
2023/03/04 16:34:46;;;;;;;;;;;;;;;;;;6172910;23;19932;-81
2023/03/04 16:37:12;;;;;;;;;;;;;;;;;;6170406;23;19908;-81